Time;durP1;ratioP1;P1;durP2;ratioP2;P2;SDS_P1;SDS_P2;PMS_P1;PMS_P2;Temp;Humidity;BMP_temperature;BMP_pressure;BME280_temperature;BME280_humidity;BME280_pressure;Samples;Min_cycle;Max_cycle;Signal;HPM_P1;HPM_P2
2021/12/29 00:00:29;;;;;;;59.23;55.50;;;;;;;9.74;100.00;100543.30;1890286;74;85471;-79
2021/12/29 00:06:14;;;;;;;60.30;56.53;;;;;;;9.55;100.00;100554.22;1911580;74;85618;-79
2021/12/29 00:12:08;;;;;;;62.03;58.20;;;;;;;9.36;100.00;100564.31;1930921;72;86744;-79
2021/12/29 00:17:56;;;;;;;59.97;56.33;;;;;;;9.27;100.00;100564.62;1974391;71;39592;-79
2021/12/29 00:23:41;;;;;;;57.67;54.07;;;;;;;9.06;100.00;100563.88;1861236;75;86475;-79
2021/12/29 00:29:24;;;;;;;55.40;51.70;;;;;;;9.31;100.00;100584.28;1871111;75;85588;-71
2021/12/29 00:35:14;;;;;;;56.50;52.40;;;;;;;9.39;100.00;100590.06;1919307;72;86622;-78
2021/12/29 00:40:57;;;;;;;54.17;50.57;;;;;;;9.27;100.00;100603.98;1979173;71;39570;-78
2021/12/29 00:46:42;;;;;;;56.87;52.90;;;;;;;9.29;100.00;100613.66;1843386;76;86593;-77
2021/12/29 00:52:26;;;;;;;53.10;49.17;;;;;;;9.42;100.00;100619.15;1883318;74;86544;-78
2021/12/29 00:58:10;;;;;;;54.77;51.07;;;;;;;9.37;100.00;100624.73;1939053;72;86861;-71
2021/12/29 01:03:54;;;;;;;56.07;52.10;;;;;;;9.32;100.00;100605.35;1978114;71;39789;-71
2021/12/29 01:09:38;;;;;;;54.83;51.03;;;;;;;9.42;100.00;100609.45;1832892;76;86293;-71
2021/12/29 01:15:31;;;;;;;59.10;55.27;;;;;;;9.35;100.00;100615.86;1882949;74;86168;-78
2021/12/29 01:21:14;;;;;;;56.97;53.27;;;;;;;9.27;100.00;100615.06;1934691;73;86139;-77
2021/12/29 01:27:02;;;;;;;56.67;52.87;;;;;;;9.14;100.00;100613.72;1855871;75;86846;-72
2021/12/29 01:32:45;;;;;;;59.70;55.77;;;;;;;9.13;100.00;100606.51;1832733;76;86303;-78
2021/12/29 01:38:29;;;;;;;56.37;52.77;;;;;;;9.13;100.00;100599.58;1798050;78;86639;-71
2021/12/29 01:44:16;;;;;;;55.73;51.80;;;;;;;9.02;100.00;100596.03;1934409;72;86371;-78
2021/12/29 01:50:01;;;;;;;56.33;52.63;;;;;;;9.07;100.00;100614.58;1981687;71;39616;-78
2021/12/29 01:55:46;;;;;;;55.30;51.50;;;;;;;9.04;100.00;100604.03;1985851;70;86764;-71
2021/12/29 02:01:30;;;;;;;56.27;52.57;;;;;;;9.01;100.00;100606.83;1802995;78;86334;-78
2021/12/29 02:07:14;;;;;;;57.50;53.53;;;;;;;8.92;100.00;100611.28;1910039;74;86328;-71
2021/12/29 02:13:00;;;;;;;57.20;53.37;;;;;;;8.89;100.00;100624.31;1944503;71;39660;-70
2021/12/29 02:18:52;;;;;;;56.03;52.57;;;;;;;8.84;100.00;100628.47;1842896;76;86423;-77
2021/12/29 02:24:41;;;;;;;57.73;54.10;;;;;;;8.86;100.00;100637.31;1835711;76;85770;-72
2021/12/29 02:30:27;;;;;;;57.57;53.87;;;;;;;8.85;100.00;100641.77;1838960;76;86242;-77
2021/12/29 02:36:11;;;;;;;54.90;51.30;;;;;;;8.87;100.00;100643.13;1947796;72;86652;-70
2021/12/29 02:41:56;;;;;;;55.97;52.27;;;;;;;8.93;100.00;100632.89;1985627;71;39530;-71
2021/12/29 02:47:41;;;;;;;55.90;52.37;;;;;;;9.00;100.00;100617.63;1825882;75;86273;-78
2021/12/29 02:53:28;;;;;;;54.60;51.00;;;;;;;9.00;100.00;100614.02;1885174;73;86351;-78
2021/12/29 02:59:12;;;;;;;57.17;53.57;;;;;;;9.07;100.00;100603.50;1913085;73;86195;-79
2021/12/29 03:05:00;;;;;;;57.77;54.27;;;;;;;9.05;100.00;100606.53;1985735;71;39575;-71
2021/12/29 03:10:45;;;;;;;58.37;54.67;;;;;;;9.11;100.00;100594.31;1845803;75;86293;-77
2021/12/29 03:16:28;;;;;;;53.10;49.73;;;;;;;9.13;100.00;100594.88;1885508;73;86181;-71
2021/12/29 03:22:14;;;;;;;53.33;49.73;;;;;;;9.18;100.00;100582.11;1913993;74;86679;-71
2021/12/29 03:27:59;;;;;;;55.33;51.83;;;;;;;9.20;100.00;100584.86;1944031;71;39742;-71
2021/12/29 03:33:46;;;;;;;54.30;50.87;;;;;;;9.24;100.00;100576.84;1843371;76;86618;-71
2021/12/29 03:39:37;;;;;;;55.10;51.70;;;;;;;9.31;100.00;100584.28;1809506;78;85568;-77
2021/12/29 03:45:18;;;;;;;54.00;50.30;;;;;;;9.28;100.00;100577.93;1887650;75;85838;-72
2021/12/29 03:51:04;;;;;;;52.93;49.53;;;;;;;9.29;100.00;100562.94;1916379;74;86024;-77
2021/12/29 03:56:48;;;;;;;54.00;50.50;;;;;;;9.27;100.00;100555.48;1969092;71;39771;-78
2021/12/29 04:02:32;;;;;;;52.53;49.10;;;;;;;9.28;100.00;100573.77;1801233;78;85442;-71
2021/12/29 04:08:16;;;;;;;51.50;47.87;;;;;;;9.35;100.00;100564.59;1931093;73;86378;-78
2021/12/29 04:14:00;;;;;;;55.57;51.97;;;;;;;9.38;100.00;100564.00;1975965;71;39829;-78
2021/12/29 04:25:52;;;;;;;53.07;49.67;;;;;;;9.37;100.00;100556.24;1982606;71;39675;-71
2021/12/29 04:31:34;;;;;;;49.50;46.13;;;;;;;9.45;100.00;100547.91;1879436;74;86740;-78
2021/12/29 04:37:18;;;;;;;50.20;46.63;;;;;;;9.50;100.00;100545.09;1851225;77;85709;-71
2021/12/29 04:43:02;;;;;;;53.30;49.60;;;;;;;9.50;100.00;100538.98;1912220;72;86446;-78
2021/12/29 04:48:51;;;;;;;53.93;50.23;;;;;;;9.56;100.00;100534.25;1809955;78;86409;-71
2021/12/29 04:54:32;;;;;;;51.80;47.77;;;;;;;9.59;100.00;100530.90;1809299;78;86128;-77
2021/12/29 05:00:21;;;;;;;52.47;48.63;;;;;;;9.58;100.00;100534.81;1870628;73;86360;-71
2021/12/29 05:12:10;;;;;;;54.33;50.13;;;;;;;9.66;100.00;100555.00;1903597;72;86483;-72
2021/12/29 05:17:55;;;;;;;52.47;48.13;;;;;;;9.72;100.00;100548.84;1942100;71;39510;-78
2021/12/29 05:23:40;;;;;;;51.97;47.70;;;;;;;9.65;100.00;100551.12;1845273;75;86588;-77
2021/12/29 05:29:23;;;;;;;51.00;46.83;;;;;;;9.69;100.00;100554.97;1873163;75;86446;-71
2021/12/29 05:35:10;;;;;;;54.53;50.17;;;;;;;9.74;100.00;100567.43;1913876;72;85604;-71
2021/12/29 05:40:54;;;;;;;51.73;47.40;;;;;;;9.75;100.00;100556.61;1952759;71;39595;-78
2021/12/29 05:46:38;;;;;;;51.50;47.00;;;;;;;9.74;100.00;100534.98;1851447;76;86182;-77
2021/12/29 05:52:22;;;;;;;50.40;45.97;;;;;;;9.72;100.00;100524.72;1893777;74;86563;-71
2021/12/29 05:58:06;;;;;;;51.27;46.57;;;;;;;9.76;100.00;100524.41;1908620;74;86438;-70
2021/12/29 06:03:50;;;;;;;50.03;45.50;;;;;;;9.75;100.00;100508.08;1981620;71;39564;-70
2021/12/29 06:09:35;;;;;;;52.70;48.40;;;;;;;9.79;100.00;100480.86;1883898;74;86519;-78
2021/12/29 06:15:20;;;;;;;53.87;49.23;;;;;;;9.81;100.00;100471.68;1876597;75;86788;-71
2021/12/29 06:21:05;;;;;;;47.90;43.60;;;;;;;9.84;100.00;100448.90;1927362;73;86236;-71
2021/12/29 06:26:49;;;;;;;50.57;45.80;;;;;;;9.80;100.00;100465.86;1974087;71;39684;-71
2021/12/29 06:32:32;;;;;;;48.40;43.23;;;;;;;9.87;100.00;100458.61;1808407;78;86525;-77
2021/12/29 06:38:16;;;;;;;49.60;45.13;;;;;;;9.85;100.00;100444.19;1932522;73;86852;-80
2021/12/29 06:44:00;;;;;;;50.00;44.93;;;;;;;9.87;100.00;100451.67;1979216;71;39588;-71
2021/12/29 06:49:45;;;;;;;50.90;46.40;;;;;;;9.83;100.00;100444.50;1848723;76;85482;-77
2021/12/29 06:55:29;;;;;;;49.30;45.00;;;;;;;9.85;100.00;100450.56;1808429;78;86912;-77
2021/12/29 07:01:16;;;;;;;49.47;45.60;;;;;;;9.89;100.00;100428.61;1912545;72;85744;-78
2021/12/29 07:06:59;;;;;;;47.90;43.90;;;;;;;9.83;100.00;100416.76;1983391;71;39494;-80
2021/12/29 07:12:43;;;;;;;49.07;44.93;;;;;;;9.89;100.00;100412.80;1840639;76;86656;-71
2021/12/29 07:18:27;;;;;;;50.97;46.80;;;;;;;9.90;100.00;100424.73;1889568;73;86490;-71
2021/12/29 07:24:13;;;;;;;50.30;46.43;;;;;;;9.92;100.00;100408.63;1912855;73;86184;-77
2021/12/29 07:29:56;;;;;;;51.20;47.13;;;;;;;9.94;100.00;100403.05;1985800;71;39481;-71
2021/12/29 07:35:40;;;;;;;52.53;48.40;;;;;;;9.95;100.00;100388.63;1820746;76;86407;-70
2021/12/29 07:41:24;;;;;;;52.50;48.37;;;;;;;9.93;100.00;100381.97;1884374;73;86646;-71
2021/12/29 07:47:10;;;;;;;47.83;44.23;;;;;;;10.01;100.00;100386.88;1905780;74;85817;-78
2021/12/29 07:52:55;;;;;;;49.57;45.83;;;;;;;10.09;100.00;100400.70;1980654;71;39533;-77
2021/12/29 07:58:39;;;;;;;49.97;46.57;;;;;;;10.31;100.00;100389.13;1849245;76;86517;-78
2021/12/29 08:04:25;;;;;;;50.60;47.10;;;;;;;10.31;100.00;100364.94;1883404;74;86087;-77
2021/12/29 08:13:15;;;;;;;49.67;46.10;;;;;;;10.41;100.00;100373.16;1960441;71;86497;-79
2021/12/29 08:15:46;;;;;;;49.13;45.95;;;;;;;10.38;100.00;100369.59;1882990;73;938865;-71
2021/12/29 08:18:16;;;;;;;46.23;43.23;;;;;;;10.42;100.00;100362.87;1905616;73;940896;-80
2021/12/29 08:20:48;;;;;;;49.87;46.77;;;;;;;10.42;100.00;100359.55;1860795;73;940992;-72
2021/12/29 08:23:18;;;;;;;46.07;43.07;;;;;;;10.47;100.00;100339.22;1899306;72;941399;-71
2021/12/29 08:29:06;;;;;;;49.30;46.20;;;;;;;10.57;100.00;100337.69;1913033;74;86555;-81
2021/12/29 08:34:49;;;;;;;48.80;45.80;;;;;;;10.65;100.00;100350.94;1985216;71;39526;-71
2021/12/29 08:40:33;;;;;;;48.23;45.23;;;;;;;10.73;100.00;100343.88;1882802;74;86161;-71
2021/12/29 08:46:18;;;;;;;49.63;46.33;;;;;;;10.74;100.00;100353.88;1856488;75;86073;-72
2021/12/29 08:52:03;;;;;;;50.83;47.60;;;;;;;10.77;100.00;100347.16;1914972;74;86772;-81
2021/12/29 08:57:50;;;;;;;49.20;46.10;;;;;;;10.84;100.00;100330.93;1892350;74;86052;-80
2021/12/29 09:03:43;;;;;;;48.63;45.53;;;;;;;10.83;100.00;100360.39;1881861;74;86357;-83
2021/12/29 09:09:27;;;;;;;49.43;46.33;;;;;;;10.89;100.00;100350.31;1869924;75;86068;-73
2021/12/29 09:15:13;;;;;;;49.77;46.57;;;;;;;10.95;100.00;100349.69;1909249;74;86792;-73
2021/12/29 09:21:05;;;;;;;54.83;51.53;;;;;;;11.03;100.00;100341.23;1951571;71;39509;-74
2021/12/29 09:26:46;;;;;;;50.77;47.57;;;;;;;11.10;100.00;100318.05;1810413;78;86469;-74
2021/12/29 09:32:32;;;;;;;51.83;48.73;;;;;;;11.25;100.00;100310.28;1824620;76;86823;-78
2021/12/29 09:38:18;;;;;;;49.23;46.07;;;;;;;11.25;100.00;100313.06;1907597;74;86356;-79
2021/12/29 09:44:03;;;;;;;49.77;46.57;;;;;;;11.36;100.00;100312.34;1914786;74;85669;-72
2021/12/29 09:49:51;;;;;;;55.60;52.23;;;;;;;11.44;100.00;100313.03;1893385;74;86590;-76
2021/12/29 09:55:36;;;;;;;48.53;45.33;;;;;;;11.50;100.00;100305.44;1875885;74;86441;-72
2021/12/29 10:01:23;;;;;;;49.00;45.73;;;;;;;11.56;100.00;100300.86;1896426;73;86591;-82
2021/12/29 10:07:15;;;;;;;49.40;46.30;;;;;;;11.72;100.00;100292.52;1915198;72;86501;-78
2021/12/29 10:13:06;;;;;;;49.80;46.70;;;;;;;11.75;100.00;100289.72;1903053;75;86371;-82
2021/12/29 10:18:54;;;;;;;50.27;47.17;;;;;;;11.88;100.00;100295.87;1975186;70;39646;-69
2021/12/29 10:24:40;;;;;;;46.13;43.10;;;;;;;11.93;100.00;100279.64;1850264;75;86255;-72
2021/12/29 10:30:28;;;;;;;41.47;38.60;;;;;;;12.03;100.00;100283.03;1879693;74;85684;-73
2021/12/29 10:36:22;;;;;;;40.97;37.63;;;;;;;12.12;100.00;100288.14;1911486;74;86224;-76
2021/12/29 10:42:16;;;;;;;39.77;37.00;;;;;;;12.31;100.00;100296.40;1919985;73;86498;-70
2021/12/29 10:48:05;;;;;;;42.43;39.57;;;;;;;12.50;100.00;100301.27;1927121;73;86214;-73
2021/12/29 10:53:51;;;;;;;40.93;38.23;;;;;;;12.67;100.00;100288.91;1929063;71;39428;-70
2021/12/29 10:59:41;;;;;;;42.97;40.17;;;;;;;12.75;100.00;100296.52;1848777;76;86503;-74
2021/12/29 11:05:36;;;;;;;43.20;40.50;;;;;;;12.82;100.00;100286.36;1884605;73;86563;-73
2021/12/29 11:11:33;;;;;;;41.43;38.73;;;;;;;13.02;100.00;100281.69;1908123;74;86049;-72
2021/12/29 11:17:31;;;;;;;38.20;35.60;;;;;;;13.21;100.00;100273.19;1809202;78;86488;-79
2021/12/29 11:23:22;;;;;;;37.83;35.30;;;;;;;13.47;100.00;100266.39;1935185;72;85583;-79
2021/12/29 11:29:09;;;;;;;38.23;35.80;;;;;;;13.63;100.00;100274.05;1911890;74;86348;-73
2021/12/29 11:35:08;;;;;;;37.53;35.33;;;;;;;13.93;100.00;100276.58;1980408;71;39703;-80
2021/12/29 11:40:56;;;;;;;38.43;36.23;;;;;;;14.07;100.00;100275.08;1979688;71;39792;-72
2021/12/29 11:46:41;;;;;;;40.23;37.60;;;;;;;14.12;100.00;100291.10;1848224;76;86531;-69
2021/12/29 11:52:38;;;;;;;42.47;40.17;;;;;;;14.33;100.00;100288.58;1881335;74;86508;-74
2021/12/29 11:58:29;;;;;;;42.23;39.73;;;;;;;14.43;100.00;100296.67;1871239;75;86085;-77
2021/12/29 12:04:22;;;;;;;42.17;39.77;;;;;;;14.54;100.00;100313.41;1897071;74;86076;-73
2021/12/29 12:10:14;;;;;;;45.30;42.67;;;;;;;14.63;100.00;100328.80;1913531;72;86431;-80
2021/12/29 12:16:11;;;;;;;45.20;42.60;;;;;;;14.70;100.00;100322.14;1925237;71;40420;-80
2021/12/29 12:22:13;;;;;;;46.27;43.27;;;;;;;14.74;100.00;100324.53;1951441;73;86403;-74
2021/12/29 12:28:03;;;;;;;48.83;46.03;;;;;;;14.77;100.00;100327.24;1977864;71;39582;-74
2021/12/29 12:33:54;;;;;;;51.20;48.30;;;;;;;14.85;100.00;100339.84;1981706;71;39516;-79
2021/12/29 12:40:07;;;;;;;51.20;48.30;;;;;;;14.87;100.00;100351.54;1975716;71;86152;-73
2021/12/29 12:45:57;;;;;;;53.67;50.87;;;;;;;14.89;100.00;100342.84;1982269;71;39476;-79
2021/12/29 12:51:57;;;;;;;56.53;53.47;;;;;;;14.91;100.00;100331.55;1841710;76;85521;-78
2021/12/29 12:57:45;;;;;;;52.60;49.63;;;;;;;14.92;100.00;100322.59;1893013;74;86656;-79
2021/12/29 13:03:34;;;;;;;48.80;46.10;;;;;;;14.97;100.00;100339.22;1888170;74;86459;-72
2021/12/29 13:09:22;;;;;;;52.57;49.73;;;;;;;15.02;100.00;100351.05;1873315;75;86288;-73
2021/12/29 13:15:12;;;;;;;51.70;48.87;;;;;;;14.99;100.00;100381.09;1912955;74;86702;-79
2021/12/29 13:21:03;;;;;;;51.67;48.57;;;;;;;14.96;100.00;100380.92;1976771;72;86470;-79
2021/12/29 13:30:05;;;;;;;47.77;45.20;;;;;;;15.06;100.00;100392.38;1938480;72;86520;-73
2021/12/29 13:35:52;;;;;;;49.70;47.00;;;;;;;14.99;100.00;100405.43;1983150;71;39768;-80
2021/12/29 13:41:40;;;;;;;47.00;43.80;;;;;;;14.99;100.00;100420.24;1828948;76;86558;-76
2021/12/29 13:47:25;;;;;;;47.73;44.40;;;;;;;14.94;100.00;100420.95;1886766;73;86434;-74
2021/12/29 13:53:12;;;;;;;55.97;52.27;;;;;;;14.91;100.00;100423.02;1912113;73;85495;-73
2021/12/29 13:59:02;;;;;;;52.80;48.90;;;;;;;14.89;100.00;100419.13;1927778;70;39676;-72
2021/12/29 14:04:48;;;;;;;52.47;48.77;;;;;;;14.94;100.00;100444.73;1987116;71;39594;-72
2021/12/29 14:10:33;;;;;;;52.03;48.33;;;;;;;14.96;100.00;100455.86;1795771;78;86785;-72
2021/12/29 14:16:22;;;;;;;50.53;46.97;;;;;;;14.99;100.00;100473.95;1884658;75;86211;-72
2021/12/29 14:22:08;;;;;;;49.47;45.63;;;;;;;14.96;100.00;100495.02;1909758;74;85371;-71
2021/12/29 14:27:54;;;;;;;52.43;48.60;;;;;;;14.96;100.00;100492.79;1976222;71;39539;-80
2021/12/29 14:33:46;;;;;;;51.23;46.60;;;;;;;14.84;100.00;100491.19;1950452;72;86522;-71
2021/12/29 14:39:32;;;;;;;54.40;49.90;;;;;;;14.76;100.00;100505.95;1807657;78;85548;-78
2021/12/29 14:45:20;;;;;;;54.60;49.97;;;;;;;14.66;100.00;100507.05;1878482;75;86066;-72
2021/12/29 14:51:09;;;;;;;55.53;50.80;;;;;;;14.57;100.00;100532.16;1907143;72;86132;-71
2021/12/29 14:56:57;;;;;;;54.07;49.57;;;;;;;14.58;100.00;100542.77;1984604;71;39570;-78
2021/12/29 15:02:48;;;;;;;52.40;48.30;;;;;;;14.58;100.00;100557.57;1952731;72;86974;-71
2021/12/29 15:08:35;;;;;;;54.37;49.93;;;;;;;14.54;100.00;100558.52;1893685;74;85630;-72
2021/12/29 15:14:28;;;;;;;51.53;47.33;;;;;;;14.44;100.00;100560.17;1869246;75;86458;-72
2021/12/29 15:20:15;;;;;;;51.63;47.07;;;;;;;14.34;100.00;100600.33;1909041;73;85332;-72
2021/12/29 15:26:06;;;;;;;54.70;50.23;;;;;;;14.28;100.00;100611.39;1939548;72;86389;-77
2021/12/29 15:32:02;;;;;;;54.03;49.43;;;;;;;14.16;100.00;100613.09;1984235;71;39553;-79
2021/12/29 15:37:54;;;;;;;61.65;56.42;;;;;;;14.13;100.00;100616.75;1969973;71;39580;-79
2021/12/29 15:43:40;;;;;;;56.07;51.73;;;;;;;14.07;100.00;100618.03;1844085;76;86445;-72
2021/12/29 15:49:26;;;;;;;57.57;53.17;;;;;;;14.01;100.00;100603.08;1914808;74;86748;-72
2021/12/29 15:55:12;;;;;;;56.77;52.07;;;;;;;13.99;100.00;100597.00;1912839;74;85515;-72
2021/12/29 16:00:56;;;;;;;58.83;53.93;;;;;;;13.91;100.00;100596.32;1942697;71;39523;-72
2021/12/29 16:06:40;;;;;;;59.10;54.17;;;;;;;13.84;100.00;100593.97;1834359;76;85723;-72
2021/12/29 16:12:24;;;;;;;58.77;53.90;;;;;;;13.73;100.00;100601.49;1891705;74;86679;-79
2021/12/29 16:18:12;;;;;;;58.03;53.50;;;;;;;13.64;100.00;100602.23;1914877;72;86738;-77
2021/12/29 16:23:56;;;;;;;59.03;54.07;;;;;;;13.66;100.00;100618.08;1985946;71;39668;-78
2021/12/29 16:29:40;;;;;;;57.77;52.60;;;;;;;13.58;100.00;100618.81;1815285;76;86508;-79
2021/12/29 16:35:26;;;;;;;54.77;49.97;;;;;;;13.48;100.00;100641.33;1894504;74;86443;-72
2021/12/29 16:41:10;;;;;;;54.87;50.40;;;;;;;13.48;100.00;100646.91;1909257;74;86259;-78
2021/12/29 16:46:55;;;;;;;53.57;49.07;;;;;;;13.36;100.00;100666.12;1974617;71;39603;-72
2021/12/29 16:52:40;;;;;;;56.37;51.70;;;;;;;13.33;100.00;100673.73;1841811;75;86432;-79
2021/12/29 16:58:36;;;;;;;55.77;51.10;;;;;;;13.29;100.00;100677.44;1864405;77;85317;-72
2021/12/29 17:04:22;;;;;;;56.73;51.37;;;;;;;13.26;100.00;100674.71;1884983;74;86168;-79
2021/12/29 17:10:10;;;;;;;60.27;55.47;;;;;;;13.20;100.00;100666.16;1924550;73;86442;-78
2021/12/29 17:15:55;;;;;;;59.93;54.87;;;;;;;13.16;100.00;100682.69;1978233;71;39495;-77
2021/12/29 17:21:42;;;;;;;59.17;54.87;;;;;;;13.08;100.00;100690.34;1979978;70;86195;-71
2021/12/29 17:27:27;;;;;;;60.47;55.27;;;;;;;13.05;100.00;100678.97;1885612;74;86740;-71
2021/12/29 17:33:09;;;;;;;56.17;51.63;;;;;;;13.00;100.00;100695.78;1905229;74;86598;-75
2021/12/29 17:38:56;;;;;;;56.93;52.43;;;;;;;12.91;100.00;100705.41;1929201;71;39603;-76
2021/12/29 17:44:41;;;;;;;57.33;52.90;;;;;;;12.96;100.00;100719.84;1850914;76;86545;-78
2021/12/29 17:50:25;;;;;;;57.83;52.87;;;;;;;12.88;100.00;100730.28;1884086;74;86565;-71
2021/12/29 17:56:09;;;;;;;59.27;54.30;;;;;;;12.77;100.00;100750.52;1914962;74;86246;-71
2021/12/29 18:01:54;;;;;;;58.87;53.60;;;;;;;12.66;100.00;100759.58;1932752;71;39585;-72
2021/12/29 18:07:51;;;;;;;55.43;50.53;;;;;;;12.79;100.00;100771.36;1890647;73;86616;-75
2021/12/29 18:13:37;;;;;;;59.20;54.13;;;;;;;12.84;100.00;100777.43;1854993;76;86221;-76
2021/12/29 18:19:25;;;;;;;57.37;52.37;;;;;;;12.73;100.00;100787.92;1880715;73;85332;-73
2021/12/29 18:25:12;;;;;;;61.33;56.07;;;;;;;12.72;100.00;100806.32;1905731;72;86459;-77
2021/12/29 18:30:56;;;;;;;58.40;53.33;;;;;;;12.77;100.00;100823.81;1934443;71;39651;-73
2021/12/29 18:36:41;;;;;;;55.90;51.17;;;;;;;12.78;100.00;100826.03;1831950;76;86732;-73
2021/12/29 18:42:28;;;;;;;58.87;53.27;;;;;;;12.84;100.00;100824.81;1868231;74;86023;-76
2021/12/29 18:48:14;;;;;;;56.50;51.33;;;;;;;12.91;100.00;100823.89;1926510;73;86490;-74
2021/12/29 18:53:58;;;;;;;57.17;52.13;;;;;;;13.04;100.00;100820.35;1984948;71;39719;-73
2021/12/29 18:59:43;;;;;;;58.20;52.93;;;;;;;13.00;100.00;100815.12;1843866;76;86238;-73
2021/12/29 19:05:27;;;;;;;55.67;50.73;;;;;;;12.99;100.00;100837.16;1874802;74;86168;-74
2021/12/29 19:11:12;;;;;;;55.73;50.83;;;;;;;13.03;100.00;100839.60;1912356;74;86731;-74
2021/12/29 19:16:57;;;;;;;63.60;58.27;;;;;;;12.99;100.00;100844.69;1985235;71;39716;-74
2021/12/29 19:22:44;;;;;;;61.90;56.53;;;;;;;13.03;100.00;100848.53;1841385;76;86186;-74
2021/12/29 19:28:27;;;;;;;64.63;59.80;;;;;;;13.12;100.00;100842.56;1874549;75;85758;-77
2021/12/29 19:34:12;;;;;;;65.43;60.03;;;;;;;13.03;100.00;100838.20;1936866;72;86312;-75
2021/12/29 19:40:00;;;;;;;67.00;61.67;;;;;;;13.06;100.00;100861.86;1986447;71;39849;-76
2021/12/29 19:45:45;;;;;;;65.03;59.83;;;;;;;13.05;100.00;100877.76;1837949;75;86677;-75
2021/12/29 19:51:29;;;;;;;65.23;59.60;;;;;;;13.03;100.00;100884.78;1801052;78;86477;-76
2021/12/29 19:57:14;;;;;;;63.33;58.57;;;;;;;12.98;100.00;100882.89;1903346;72;86228;-79
2021/12/29 20:02:57;;;;;;;59.77;54.60;;;;;;;13.11;100.00;100883.56;1986165;71;39487;-75
2021/12/29 20:08:42;;;;;;;60.73;55.67;;;;;;;13.12;100.00;100873.25;1880193;74;86216;-77
2021/12/29 20:14:28;;;;;;;63.87;58.57;;;;;;;13.08;100.00;100862.41;1869743;75;86085;-76
2021/12/29 20:20:17;;;;;;;65.03;58.93;;;;;;;13.14;100.00;100884.91;1901771;72;86457;-74
2021/12/29 20:29:08;;;;;;;62.77;57.33;;;;;;;13.12;100.00;100893.60;1897638;75;86446;-72
2021/12/29 20:31:38;;;;;;;62.33;56.60;;;;;;;13.11;100.00;100915.64;1828213;75;938656;-75
2021/12/29 20:34:11;;;;;;;63.47;57.33;;;;;;;13.18;100.00;100902.70;1813763;77;940708;-76
2021/12/29 20:36:43;;;;;;;65.50;59.38;;;;;;;13.29;100.00;100909.81;1808627;77;940823;-77
2021/12/29 20:39:16;;;;;;;60.93;54.77;;;;;;;13.22;100.00;100902.39;1780188;78;939676;-76
2021/12/29 20:41:46;;;;;;;59.77;53.83;;;;;;;13.35;100.00;100898.02;1769948;79;940793;-77
2021/12/29 20:44:17;;;;;;;56.20;50.73;;;;;;;13.43;100.00;100903.74;1758063;80;940808;-73
2021/12/29 20:46:48;;;;;;;58.45;52.65;;;;;;;13.36;100.00;100903.27;1772102;79;940956;-74
2021/12/29 20:49:19;;;;;;;57.93;52.03;;;;;;;13.41;100.00;100908.78;1758111;79;940992;-74
2021/12/29 20:51:50;;;;;;;59.95;54.53;;;;;;;13.39;100.00;100913.82;1746039;80;940733;-71
2021/12/29 20:54:21;;;;;;;55.57;49.30;;;;;;;13.48;100.00;100930.70;1765229;79;939920;-71
2021/12/29 20:56:53;;;;;;;61.68;55.65;;;;;;;13.53;100.00;100936.22;1747154;78;940922;-73
2021/12/29 20:59:23;;;;;;;59.17;53.23;;;;;;;13.50;100.00;100937.66;1771191;79;937922;-72
2021/12/29 21:01:54;;;;;;;58.33;52.45;;;;;;;13.58;100.00;100936.97;1793576;78;940930;-78
2021/12/29 21:04:24;;;;;;;57.33;51.43;;;;;;;13.62;100.00;100930.21;1841255;77;939057;-73
2021/12/29 21:06:55;;;;;;;62.45;56.92;;;;;;;13.61;100.00;100914.59;1793664;77;940917;-73
2021/12/29 21:09:27;;;;;;;60.03;54.33;;;;;;;13.68;100.00;100939.61;1806728;77;938805;-74
2021/12/29 21:11:58;;;;;;;57.30;51.77;;;;;;;13.74;100.00;100939.50;1794772;77;940887;-73
2021/12/29 21:14:28;;;;;;;54.70;49.13;;;;;;;13.81;100.00;100950.58;1806805;77;938885;-78
2021/12/29 21:16:58;;;;;;;57.83;51.97;;;;;;;13.84;100.00;100972.86;1794905;77;940907;-74
2021/12/29 21:22:43;;;;;;;55.67;50.43;;;;;;;13.92;100.00;100985.56;1846563;76;86554;-77
2021/12/29 21:28:26;;;;;;;54.60;49.47;;;;;;;14.05;100.00;100998.75;1880662;74;86415;-82
2021/12/29 21:34:11;;;;;;;54.80;50.03;;;;;;;14.08;100.00;100986.13;1936349;73;86952;-76
2021/12/29 21:39:59;;;;;;;53.80;48.87;;;;;;;14.13;100.00;100970.68;1985098;71;39500;-77
2021/12/29 21:45:48;;;;;;;53.73;48.83;;;;;;;14.21;100.00;100978.36;1891368;74;85703;-80
2021/12/29 21:51:35;;;;;;;55.13;50.27;;;;;;;14.13;100.00;100993.86;1884071;74;86408;-81
2021/12/29 21:57:34;;;;;;;54.13;49.20;;;;;;;14.09;100.00;100979.41;1884845;74;86652;-76
2021/12/29 22:03:23;;;;;;;52.43;47.83;;;;;;;14.07;100.00;101002.08;1870675;75;85521;-76
2021/12/29 22:09:08;;;;;;;56.73;51.63;;;;;;;14.09;100.00;101009.58;1921999;73;86520;-76
2021/12/29 22:14:53;;;;;;;56.27;51.40;;;;;;;14.13;100.00;101030.73;1980019;71;39517;-76
2021/12/29 22:20:39;;;;;;;54.10;49.57;;;;;;;14.14;100.00;101033.23;1846807;76;86500;-81
2021/12/29 22:26:26;;;;;;;54.90;50.47;;;;;;;14.17;100.00;101030.39;1901452;74;85736;-76
2021/12/29 22:32:12;;;;;;;50.53;46.47;;;;;;;14.21;100.00;101054.35;1932470;72;85557;-76
2021/12/29 22:37:57;;;;;;;50.47;46.47;;;;;;;14.20;100.00;101042.38;1986745;71;39517;-76
2021/12/29 22:43:46;;;;;;;50.10;46.40;;;;;;;14.17;100.00;101047.15;1834427;76;85723;-76
2021/12/29 22:49:31;;;;;;;51.77;48.10;;;;;;;14.10;100.00;101039.73;1809155;78;86836;-78
2021/12/29 22:55:20;;;;;;;49.90;46.17;;;;;;;14.10;100.00;101057.33;1868068;75;86760;-76
2021/12/29 23:01:21;;;;;;;50.37;46.97;;;;;;;14.12;100.00;101063.42;1912623;74;86089;-79
2021/12/29 23:07:20;;;;;;;52.40;48.80;;;;;;;14.10;100.00;101064.88;1871697;74;86331;-75
2021/12/29 23:13:09;;;;;;;52.40;48.67;;;;;;;14.09;100.00;101080.80;1902555;72;85607;-74
2021/12/29 23:18:59;;;;;;;49.90;46.60;;;;;;;14.07;100.00;101067.72;1980745;71;39589;-75
2021/12/29 23:24:51;;;;;;;50.20;46.90;;;;;;;14.17;100.00;101075.66;1959548;72;85549;-75
2021/12/29 23:30:30;;;;;;;54.67;51.37;;;;;;;14.19;100.00;101111.95;1809839;78;86493;-76
2021/12/29 23:36:19;;;;;;;53.80;50.30;;;;;;;14.16;100.00;101104.19;1934103;72;86451;-75
2021/12/29 23:42:03;;;;;;;48.77;45.77;;;;;;;14.21;100.00;101099.05;1922535;72;85708;-76
2021/12/29 23:47:50;;;;;;;53.83;50.70;;;;;;;14.23;100.00;101111.61;1984028;71;39726;-75
2021/12/29 23:53:38;;;;;;;52.37;49.20;;;;;;;14.29;100.00;101109.57;1886476;74;86628;-75
2021/12/29 23:59:23;;;;;;;54.17;50.97;;;;;;;14.31;100.00;101119.86;1888450;74;86347;-75
